Flag for USA

Past Weather in 42°28'00.5"N, 83°02'44.8"W, USA — Yesterday and Last 2 Weeks

Currently: 63 °F. Clear. (Weather station: Detroit City Airport, USA). See more current weather

Past Weather in 42°28'00.5"N, 83°02'44.8"W — Graph

°F

42°28'00.5"N, 83°02'44.8"W Temperature Yesterday

Maximum temperature yesterday: 75 °F (at 3:53 pm)
Minimum temperature yesterday: 57 °F (at 4:53 am)
Average temperature yesterday: 65 °F

High & Low Weather Summary for the Past Weeks

 TemperatureHumidityPressure
High89 °F (May 15, 3:53 pm)93% (May 19, 1:20 am)30.38 "Hg (May 19, 1:20 am)
Low44 °F (May 24, 4:53 am)22% (May 15, 3:53 pm)29.50 "Hg (May 20, 4:53 pm)
Average65 °F68%29.91 "Hg
* Reported May 13 11:53 pm — May 28 11:53 pm, 42°28'00.5"N, 83°02'44.8"W. Weather by CustomWeather, © 2022

Note: Actual official high and low records may vary slightly from our data, if they occured in-between our weather recording intervals... More about our weather records

42°28'00.5"N, 83°02'44.8"W Weather History for the Previous 24 Hours

Scroll right to see more
 ConditionsComfort  
Time TempWeatherWind HumidityBarometerVisibility
11:53 pm
Sat, May 28
63 °FClear.6 mph70%29.93 "Hg10 mi
10:53 pm64 °FClear.5 mph70%29.92 "Hg10 mi
9:53 pm66 °FClear.9 mph68%29.90 "Hg10 mi
8:53 pm67 °FSunny.8 mph59%29.89 "Hg10 mi
7:53 pm69 °FPassing clouds.8 mph55%29.90 "Hg10 mi
6:53 pm71 °FScattered clouds.8 mph53%29.89 "Hg10 mi
5:53 pm71 °FScattered clouds.9 mph53%29.90 "Hg10 mi
4:53 pm71 °FPartly sunny.6 mph53%29.90 "Hg10 mi
3:53 pm75 °FPassing clouds.3 mph50%29.90 "Hg10 mi
2:53 pm70 °FScattered clouds.6 mph55%29.90 "Hg10 mi
1:53 pm71 °FPassing clouds.5 mph57%29.91 "Hg10 mi
12:53 pm70 °FOvercast.7 mph59%29.91 "Hg10 mi
11:53 am68 °FOvercast.No wind53%29.92 "Hg10 mi
10:53 am67 °FPartly sunny.8 mph55%29.90 "Hg10 mi
9:53 am68 °FSunny.9 mph53%29.91 "Hg10 mi
8:53 am64 °FOvercast.5 mph70%29.90 "Hg10 mi
7:53 am61 °FOvercast.7 mph78%29.89 "Hg10 mi
6:53 am59 °FPartly sunny.5 mph81%29.87 "Hg10 mi
5:53 am57 °FClear.No wind83%29.85 "Hg10 mi
4:53 am57 °FClear.No wind83%29.82 "Hg10 mi
3:53 am59 °FPassing clouds.5 mph78%29.81 "Hg10 mi
2:53 am59 °FOvercast.No wind81%29.80 "Hg10 mi
1:53 am59 °FMostly cloudy.3 mph78%29.80 "Hg10 mi
Weather by CustomWeather, © 2022

See weather overview